sensor_id;sensor_type;location;lat;lon;timestamp;temperature;humidity
13798;DHT22;6970;51.340;3.240;2024-01-10T00:01:53;-1.50;97.60
13798;DHT22;6970;51.340;3.240;2024-01-10T00:04:22;-1.50;97.70
13798;DHT22;6970;51.340;3.240;2024-01-10T00:06:53;-1.50;97.80
13798;DHT22;6970;51.340;3.240;2024-01-10T00:09:21;-1.50;97.90
13798;DHT22;6970;51.340;3.240;2024-01-10T00:11:50;-1.50;97.90
13798;DHT22;6970;51.340;3.240;2024-01-10T00:14:18;-1.50;98.00
13798;DHT22;6970;51.340;3.240;2024-01-10T00:16:45;-1.50;98.10
13798;DHT22;6970;51.340;3.240;2024-01-10T00:19:12;-1.50;98.20
13798;DHT22;6970;51.340;3.240;2024-01-10T00:21:39;-1.60;98.20
13798;DHT22;6970;51.340;3.240;2024-01-10T00:24:07;-1.50;98.30
13798;DHT22;6970;51.340;3.240;2024-01-10T00:26:37;-1.60;98.30
13798;DHT22;6970;51.340;3.240;2024-01-10T00:29:05;-1.60;98.40
13798;DHT22;6970;51.340;3.240;2024-01-10T00:31:33;-1.60;98.40
13798;DHT22;6970;51.340;3.240;2024-01-10T00:34:01;-1.60;98.40
13798;DHT22;6970;51.340;3.240;2024-01-10T00:36:29;-1.60;98.50
13798;DHT22;6970;51.340;3.240;2024-01-10T00:38:59;-1.60;98.60
13798;DHT22;6970;51.340;3.240;2024-01-10T00:41:30;-1.60;98.60
13798;DHT22;6970;51.340;3.240;2024-01-10T00:43:59;-1.60;98.60
13798;DHT22;6970;51.340;3.240;2024-01-10T00:46:29;-1.60;98.70
13798;DHT22;6970;51.340;3.240;2024-01-10T00:48:58;-1.60;98.70
13798;DHT22;6970;51.340;3.240;2024-01-10T00:51:28;-1.60;98.70
13798;DHT22;6970;51.340;3.240;2024-01-10T00:53:58;-1.60;98.70
13798;DHT22;6970;51.340;3.240;2024-01-10T00:56:27;-1.60;98.70
13798;DHT22;6970;51.340;3.240;2024-01-10T00:58:56;-1.60;98.80
13798;DHT22;6970;51.340;3.240;2024-01-10T01:01:28;-1.60;98.90
13798;DHT22;6970;51.340;3.240;2024-01-10T01:03:55;-1.60;98.90
13798;DHT22;6970;51.340;3.240;2024-01-10T01:06:22;-1.60;98.90
13798;DHT22;6970;51.340;3.240;2024-01-10T01:08:50;-1.60;98.90
13798;DHT22;6970;51.340;3.240;2024-01-10T01:11:17;-1.60;98.90
13798;DHT22;6970;51.340;3.240;2024-01-10T01:13:45;-1.70;98.90
13798;DHT22;6970;51.340;3.240;2024-01-10T01:16:15;-1.70;98.80
13798;DHT22;6970;51.340;3.240;2024-01-10T01:18:43;-1.70;98.90
13798;DHT22;6970;51.340;3.240;2024-01-10T01:21:15;-1.70;98.90
13798;DHT22;6970;51.340;3.240;2024-01-10T01:23:42;-1.70;98.90
13798;DHT22;6970;51.340;3.240;2024-01-10T01:26:12;-1.70;98.90
13798;DHT22;6970;51.340;3.240;2024-01-10T01:28:44;-1.70;98.90
13798;DHT22;6970;51.340;3.240;2024-01-10T01:31:14;-1.70;98.90
13798;DHT22;6970;51.340;3.240;2024-01-10T01:33:41;-1.70;98.80
13798;DHT22;6970;51.340;3.240;2024-01-10T01:36:12;-1.70;98.80
13798;DHT22;6970;51.340;3.240;2024-01-10T01:38:42;-1.70;98.80
13798;DHT22;6970;51.340;3.240;2024-01-10T01:41:09;-1.70;98.80
13798;DHT22;6970;51.340;3.240;2024-01-10T01:43:39;-1.70;98.80
13798;DHT22;6970;51.340;3.240;2024-01-10T01:46:08;-1.70;98.70
13798;DHT22;6970;51.340;3.240;2024-01-10T01:48:37;-1.70;98.60
13798;DHT22;6970;51.340;3.240;2024-01-10T01:51:07;-1.80;98.50
13798;DHT22;6970;51.340;3.240;2024-01-10T01:53:39;-1.80;98.40
13798;DHT22;6970;51.340;3.240;2024-01-10T01:56:08;-1.80;98.40
13798;DHT22;6970;51.340;3.240;2024-01-10T01:58:36;-1.80;98.30
13798;DHT22;6970;51.340;3.240;2024-01-10T02:01:08;-1.80;98.30
13798;DHT22;6970;51.340;3.240;2024-01-10T02:03:39;-1.80;98.30
13798;DHT22;6970;51.340;3.240;2024-01-10T02:06:09;-1.80;98.30
13798;DHT22;6970;51.340;3.240;2024-01-10T02:08:39;-1.80;98.20
13798;DHT22;6970;51.340;3.240;2024-01-10T02:11:07;-1.80;98.10
13798;DHT22;6970;51.340;3.240;2024-01-10T02:13:35;-1.80;98.10
13798;DHT22;6970;51.340;3.240;2024-01-10T02:16:05;-1.90;98.10
13798;DHT22;6970;51.340;3.240;2024-01-10T02:18:34;-1.90;98.20
13798;DHT22;6970;51.340;3.240;2024-01-10T02:21:04;-1.90;98.20
13798;DHT22;6970;51.340;3.240;2024-01-10T02:23:34;-1.90;98.20
13798;DHT22;6970;51.340;3.240;2024-01-10T02:26:05;-1.90;98.20
13798;DHT22;6970;51.340;3.240;2024-01-10T02:28:36;-1.90;98.20
13798;DHT22;6970;51.340;3.240;2024-01-10T02:31:06;-1.90;98.30
13798;DHT22;6970;51.340;3.240;2024-01-10T02:33:34;-2.00;98.30
13798;DHT22;6970;51.340;3.240;2024-01-10T02:36:04;-2.00;98.30
13798;DHT22;6970;51.340;3.240;2024-01-10T02:38:33;-2.00;98.40
13798;DHT22;6970;51.340;3.240;2024-01-10T02:41:04;-2.00;98.40
13798;DHT22;6970;51.340;3.240;2024-01-10T02:43:34;-2.00;98.50
13798;DHT22;6970;51.340;3.240;2024-01-10T02:46:04;-2.00;98.50
13798;DHT22;6970;51.340;3.240;2024-01-10T02:48:31;-2.00;98.50
13798;DHT22;6970;51.340;3.240;2024-01-10T02:51:01;-2.00;98.50
13798;DHT22;6970;51.340;3.240;2024-01-10T02:53:29;-2.00;98.50
13798;DHT22;6970;51.340;3.240;2024-01-10T02:56:00;-2.10;98.60
13798;DHT22;6970;51.340;3.240;2024-01-10T02:58:27;-2.10;98.60
13798;DHT22;6970;51.340;3.240;2024-01-10T03:00:55;-2.10;98.60
13798;DHT22;6970;51.340;3.240;2024-01-10T03:03:23;-2.10;98.70
13798;DHT22;6970;51.340;3.240;2024-01-10T03:05:50;-2.10;98.70
13798;DHT22;6970;51.340;3.240;2024-01-10T03:08:23;-2.10;98.80
13798;DHT22;6970;51.340;3.240;2024-01-10T03:10:52;-2.10;98.80
13798;DHT22;6970;51.340;3.240;2024-01-10T03:13:22;-2.10;98.80
13798;DHT22;6970;51.340;3.240;2024-01-10T03:15:52;-2.10;98.90
13798;DHT22;6970;51.340;3.240;2024-01-10T03:18:20;-2.10;99.00
13798;DHT22;6970;51.340;3.240;2024-01-10T03:20:51;-2.10;99.00
13798;DHT22;6970;51.340;3.240;2024-01-10T03:23:20;-2.10;99.10
13798;DHT22;6970;51.340;3.240;2024-01-10T03:25:51;-2.10;99.10
13798;DHT22;6970;51.340;3.240;2024-01-10T03:28:21;-2.10;99.20
13798;DHT22;6970;51.340;3.240;2024-01-10T03:30:48;-2.10;99.20
13798;DHT22;6970;51.340;3.240;2024-01-10T03:33:18;-2.10;99.30
13798;DHT22;6970;51.340;3.240;2024-01-10T03:35:47;-2.20;99.40
13798;DHT22;6970;51.340;3.240;2024-01-10T03:38:15;-2.20;99.50
13798;DHT22;6970;51.340;3.240;2024-01-10T03:40:44;-2.20;99.60
13798;DHT22;6970;51.340;3.240;2024-01-10T03:43:11;-2.20;99.60
13798;DHT22;6970;51.340;3.240;2024-01-10T03:45:39;-2.20;99.60
13798;DHT22;6970;51.340;3.240;2024-01-10T03:48:15;-2.20;99.80
13798;DHT22;6970;51.340;3.240;2024-01-10T03:50:43;-2.30;99.90
13798;DHT22;6970;51.340;3.240;2024-01-10T03:53:10;-2.30;99.90
13798;DHT22;6970;51.340;3.240;2024-01-10T03:55:40;-2.20;99.90
13798;DHT22;6970;51.340;3.240;2024-01-10T03:58:10;-2.30;99.90
13798;DHT22;6970;51.340;3.240;2024-01-10T04:00:37;-2.20;99.90
13798;DHT22;6970;51.340;3.240;2024-01-10T04:03:04;-2.30;99.90
13798;DHT22;6970;51.340;3.240;2024-01-10T04:05:32;-2.20;99.90
13798;DHT22;6970;51.340;3.240;2024-01-10T04:07:59;-2.30;99.90
13798;DHT22;6970;51.340;3.240;2024-01-10T04:10:28;-2.30;99.90
13798;DHT22;6970;51.340;3.240;2024-01-10T04:12:55;-2.30;99.90
13798;DHT22;6970;51.340;3.240;2024-01-10T04:15:25;-2.30;99.90
13798;DHT22;6970;51.340;3.240;2024-01-10T04:17:52;-2.30;99.90
13798;DHT22;6970;51.340;3.240;2024-01-10T04:20:19;-2.30;99.90
13798;DHT22;6970;51.340;3.240;2024-01-10T04:22:47;-2.30;99.90
13798;DHT22;6970;51.340;3.240;2024-01-10T04:25:17;-2.30;99.90
13798;DHT22;6970;51.340;3.240;2024-01-10T04:27:45;-2.30;99.90
13798;DHT22;6970;51.340;3.240;2024-01-10T04:30:16;-2.30;99.90
13798;DHT22;6970;51.340;3.240;2024-01-10T04:32:44;-2.30;99.90
13798;DHT22;6970;51.340;3.240;2024-01-10T04:35:14;-2.30;99.90
13798;DHT22;6970;51.340;3.240;2024-01-10T04:37:44;-2.30;99.90
13798;DHT22;6970;51.340;3.240;2024-01-10T04:40:12;-2.30;99.90
13798;DHT22;6970;51.340;3.240;2024-01-10T04:42:40;-2.30;99.90
13798;DHT22;6970;51.340;3.240;2024-01-10T04:45:07;-2.40;99.90
13798;DHT22;6970;51.340;3.240;2024-01-10T04:47:40;-2.40;99.90
13798;DHT22;6970;51.340;3.240;2024-01-10T04:50:08;-2.40;99.90
13798;DHT22;6970;51.340;3.240;2024-01-10T04:52:40;-2.40;99.90
13798;DHT22;6970;51.340;3.240;2024-01-10T04:55:11;-2.40;99.90
13798;DHT22;6970;51.340;3.240;2024-01-10T04:57:41;-2.40;99.90
13798;DHT22;6970;51.340;3.240;2024-01-10T05:00:08;-2.40;99.90
13798;DHT22;6970;51.340;3.240;2024-01-10T05:02:37;-2.40;99.90
13798;DHT22;6970;51.340;3.240;2024-01-10T05:05:05;-2.40;99.90
13798;DHT22;6970;51.340;3.240;2024-01-10T05:07:35;-2.40;99.90
13798;DHT22;6970;51.340;3.240;2024-01-10T05:10:05;-2.40;99.90
13798;DHT22;6970;51.340;3.240;2024-01-10T05:12:33;-2.40;99.90
13798;DHT22;6970;51.340;3.240;2024-01-10T05:15:00;-2.40;99.90
13798;DHT22;6970;51.340;3.240;2024-01-10T05:17:35;-2.40;99.90
13798;DHT22;6970;51.340;3.240;2024-01-10T05:20:03;-2.30;99.90
13798;DHT22;6970;51.340;3.240;2024-01-10T05:22:34;-2.40;99.90
13798;DHT22;6970;51.340;3.240;2024-01-10T05:25:05;-2.40;99.90
13798;DHT22;6970;51.340;3.240;2024-01-10T05:27:32;-2.40;99.90
13798;DHT22;6970;51.340;3.240;2024-01-10T05:29:59;-2.40;99.90
13798;DHT22;6970;51.340;3.240;2024-01-10T05:32:30;-2.40;99.90
13798;DHT22;6970;51.340;3.240;2024-01-10T05:34:59;-2.40;99.90
13798;DHT22;6970;51.340;3.240;2024-01-10T05:37:29;-2.40;99.90
13798;DHT22;6970;51.340;3.240;2024-01-10T05:39:58;-2.40;99.90
13798;DHT22;6970;51.340;3.240;2024-01-10T05:42:28;-2.40;99.90
13798;DHT22;6970;51.340;3.240;2024-01-10T05:44:59;-2.40;99.90
13798;DHT22;6970;51.340;3.240;2024-01-10T05:47:26;-2.40;99.90
13798;DHT22;6970;51.340;3.240;2024-01-10T05:49:54;-2.40;99.90
13798;DHT22;6970;51.340;3.240;2024-01-10T05:52:27;-2.40;99.90
13798;DHT22;6970;51.340;3.240;2024-01-10T05:55:00;-2.30;99.90
13798;DHT22;6970;51.340;3.240;2024-01-10T05:57:31;-2.40;99.90
13798;DHT22;6970;51.340;3.240;2024-01-10T06:00:01;-2.30;99.90
13798;DHT22;6970;51.340;3.240;2024-01-10T06:02:29;-2.30;99.90
13798;DHT22;6970;51.340;3.240;2024-01-10T06:05:00;-2.30;99.90
13798;DHT22;6970;51.340;3.240;2024-01-10T06:07:36;-2.30;99.90
13798;DHT22;6970;51.340;3.240;2024-01-10T06:10:06;-2.30;99.90
13798;DHT22;6970;51.340;3.240;2024-01-10T06:12:36;-2.40;99.90
13798;DHT22;6970;51.340;3.240;2024-01-10T06:15:06;-2.30;99.90
13798;DHT22;6970;51.340;3.240;2024-01-10T06:17:34;-2.40;99.90
13798;DHT22;6970;51.340;3.240;2024-01-10T06:20:02;-2.40;99.90
13798;DHT22;6970;51.340;3.240;2024-01-10T06:22:31;-2.40;99.90
13798;DHT22;6970;51.340;3.240;2024-01-10T06:25:01;-2.40;99.90
13798;DHT22;6970;51.340;3.240;2024-01-10T06:27:31;-2.30;99.90
13798;DHT22;6970;51.340;3.240;2024-01-10T06:29:58;-2.40;99.90
13798;DHT22;6970;51.340;3.240;2024-01-10T06:32:28;-2.30;99.90
13798;DHT22;6970;51.340;3.240;2024-01-10T06:34:57;-2.30;99.90
13798;DHT22;6970;51.340;3.240;2024-01-10T06:37:24;-2.30;99.90
13798;DHT22;6970;51.340;3.240;2024-01-10T06:39:51;-2.40;99.90
13798;DHT22;6970;51.340;3.240;2024-01-10T06:42:25;-2.40;99.90
13798;DHT22;6970;51.340;3.240;2024-01-10T06:44:53;-2.40;99.90
13798;DHT22;6970;51.340;3.240;2024-01-10T06:47:26;-2.40;99.90
13798;DHT22;6970;51.340;3.240;2024-01-10T06:49:56;-2.40;99.90
13798;DHT22;6970;51.340;3.240;2024-01-10T06:52:24;-2.40;99.90
13798;DHT22;6970;51.340;3.240;2024-01-10T06:55:02;-2.40;99.90
13798;DHT22;6970;51.340;3.240;2024-01-10T06:57:37;-2.40;99.90
13798;DHT22;6970;51.340;3.240;2024-01-10T07:00:04;-2.40;99.90
13798;DHT22;6970;51.340;3.240;2024-01-10T07:02:34;-2.40;99.90
13798;DHT22;6970;51.340;3.240;2024-01-10T07:05:07;-2.40;99.90
13798;DHT22;6970;51.340;3.240;2024-01-10T07:07:36;-2.50;99.90
13798;DHT22;6970;51.340;3.240;2024-01-10T07:10:05;-2.40;99.90
13798;DHT22;6970;51.340;3.240;2024-01-10T07:12:35;-2.50;99.90
13798;DHT22;6970;51.340;3.240;2024-01-10T07:15:04;-2.50;99.90
13798;DHT22;6970;51.340;3.240;2024-01-10T07:17:33;-2.50;99.90
13798;DHT22;6970;51.340;3.240;2024-01-10T07:20:01;-2.50;99.90
13798;DHT22;6970;51.340;3.240;2024-01-10T07:22:31;-2.50;99.90
13798;DHT22;6970;51.340;3.240;2024-01-10T07:25:02;-2.50;99.90
13798;DHT22;6970;51.340;3.240;2024-01-10T07:27:33;-2.50;99.90
13798;DHT22;6970;51.340;3.240;2024-01-10T07:30:06;-2.50;99.90
13798;DHT22;6970;51.340;3.240;2024-01-10T07:32:45;-2.50;99.90
13798;DHT22;6970;51.340;3.240;2024-01-10T07:35:14;-2.50;99.90
13798;DHT22;6970;51.340;3.240;2024-01-10T07:37:43;-2.50;99.90
13798;DHT22;6970;51.340;3.240;2024-01-10T07:40:11;-2.50;99.90
13798;DHT22;6970;51.340;3.240;2024-01-10T07:42:43;-2.50;99.90
13798;DHT22;6970;51.340;3.240;2024-01-10T07:45:10;-2.50;99.90
13798;DHT22;6970;51.340;3.240;2024-01-10T07:47:41;-2.50;99.90
13798;DHT22;6970;51.340;3.240;2024-01-10T07:50:11;-2.50;99.90
13798;DHT22;6970;51.340;3.240;2024-01-10T07:52:42;-2.40;99.90
13798;DHT22;6970;51.340;3.240;2024-01-10T07:55:13;-2.50;99.90
13798;DHT22;6970;51.340;3.240;2024-01-10T07:57:41;-2.50;99.90
13798;DHT22;6970;51.340;3.240;2024-01-10T08:00:11;-2.40;99.90
13798;DHT22;6970;51.340;3.240;2024-01-10T08:02:43;-2.30;99.90
13798;DHT22;6970;51.340;3.240;2024-01-10T08:05:10;-2.30;99.90
13798;DHT22;6970;51.340;3.240;2024-01-10T08:07:40;-2.30;99.90
13798;DHT22;6970;51.340;3.240;2024-01-10T08:10:09;-2.00;99.90
13798;DHT22;6970;51.340;3.240;2024-01-10T08:12:39;-1.40;99.90
13798;DHT22;6970;51.340;3.240;2024-01-10T08:15:12;-0.40;99.90
13798;DHT22;6970;51.340;3.240;2024-01-10T08:17:40;0.60;99.90
13798;DHT22;6970;51.340;3.240;2024-01-10T08:20:09;1.40;99.90
13798;DHT22;6970;51.340;3.240;2024-01-10T08:22:40;2.00;99.50
13798;DHT22;6970;51.340;3.240;2024-01-10T08:25:10;2.60;99.00
13798;DHT22;6970;51.340;3.240;2024-01-10T08:27:37;3.50;98.20
13798;DHT22;6970;51.340;3.240;2024-01-10T08:30:10;4.70;97.20
13798;DHT22;6970;51.340;3.240;2024-01-10T08:32:41;6.00;95.10
13798;DHT22;6970;51.340;3.240;2024-01-10T08:35:11;7.00;92.50
13798;DHT22;6970;51.340;3.240;2024-01-10T08:37:42;7.90;91.30
13798;DHT22;6970;51.340;3.240;2024-01-10T08:40:11;8.70;90.30
13798;DHT22;6970;51.340;3.240;2024-01-10T08:42:42;9.20;87.40
13798;DHT22;6970;51.340;3.240;2024-01-10T08:45:11;9.50;84.60
13798;DHT22;6970;51.340;3.240;2024-01-10T08:47:41;9.90;83.70
13798;DHT22;6970;51.340;3.240;2024-01-10T08:50:11;10.40;82.30
13798;DHT22;6970;51.340;3.240;2024-01-10T08:52:41;10.80;80.80
13798;DHT22;6970;51.340;3.240;2024-01-10T08:55:10;11.30;77.50
13798;DHT22;6970;51.340;3.240;2024-01-10T08:57:42;11.80;75.40
13798;DHT22;6970;51.340;3.240;2024-01-10T09:00:10;12.30;73.70
13798;DHT22;6970;51.340;3.240;2024-01-10T09:02:42;12.80;71.50
13798;DHT22;6970;51.340;3.240;2024-01-10T09:05:10;13.30;69.60
13798;DHT22;6970;51.340;3.240;2024-01-10T09:07:39;13.60;66.40
13798;DHT22;6970;51.340;3.240;2024-01-10T09:10:10;14.00;66.50
13798;DHT22;6970;51.340;3.240;2024-01-10T09:12:41;14.10;64.30
13798;DHT22;6970;51.340;3.240;2024-01-10T09:15:16;14.20;63.90
13798;DHT22;6970;51.340;3.240;2024-01-10T09:17:44;14.20;63.60
13798;DHT22;6970;51.340;3.240;2024-01-10T09:20:14;14.50;64.10
13798;DHT22;6970;51.340;3.240;2024-01-10T09:22:42;14.60;62.00
13798;DHT22;6970;51.340;3.240;2024-01-10T09:25:10;14.60;61.50
13798;DHT22;6970;51.340;3.240;2024-01-10T09:27:42;14.40;62.00
13798;DHT22;6970;51.340;3.240;2024-01-10T09:30:14;14.50;63.00
13798;DHT22;6970;51.340;3.240;2024-01-10T09:32:44;14.60;61.40
13798;DHT22;6970;51.340;3.240;2024-01-10T09:35:12;14.50;61.50
13798;DHT22;6970;51.340;3.240;2024-01-10T09:37:41;14.80;61.80
13798;DHT22;6970;51.340;3.240;2024-01-10T09:40:09;14.90;60.70
13798;DHT22;6970;51.340;3.240;2024-01-10T09:42:37;14.70;60.60
13798;DHT22;6970;51.340;3.240;2024-01-10T09:45:08;14.70;60.30
13798;DHT22;6970;51.340;3.240;2024-01-10T09:47:40;14.70;61.50
13798;DHT22;6970;51.340;3.240;2024-01-10T09:50:10;14.90;60.90
13798;DHT22;6970;51.340;3.240;2024-01-10T09:52:46;15.10;59.90
13798;DHT22;6970;51.340;3.240;2024-01-10T09:55:21;15.00;60.30
13798;DHT22;6970;51.340;3.240;2024-01-10T09:57:53;15.20;60.60
13798;DHT22;6970;51.340;3.240;2024-01-10T10:00:23;15.30;59.40
13798;DHT22;6970;51.340;3.240;2024-01-10T10:02:55;15.10;59.10
13798;DHT22;6970;51.340;3.240;2024-01-10T10:05:23;15.20;60.70
13798;DHT22;6970;51.340;3.240;2024-01-10T10:08:12;15.40;58.80
13798;DHT22;6970;51.340;3.240;2024-01-10T10:10:43;15.30;59.50
13798;DHT22;6970;51.340;3.240;2024-01-10T10:13:27;15.30;59.20
13798;DHT22;6970;51.340;3.240;2024-01-10T10:15:59;15.40;59.30
13798;DHT22;6970;51.340;3.240;2024-01-10T10:18:31;15.50;58.90
13798;DHT22;6970;51.340;3.240;2024-01-10T10:21:13;15.40;58.70
13798;DHT22;6970;51.340;3.240;2024-01-10T10:23:43;15.60;59.00
13798;DHT22;6970;51.340;3.240;2024-01-10T10:26:19;15.70;57.90
13798;DHT22;6970;51.340;3.240;2024-01-10T10:28:55;15.70;58.00
13798;DHT22;6970;51.340;3.240;2024-01-10T10:31:23;15.80;58.70
13798;DHT22;6970;51.340;3.240;2024-01-10T10:33:53;16.00;57.80
13798;DHT22;6970;51.340;3.240;2024-01-10T10:36:23;16.00;57.60
13798;DHT22;6970;51.340;3.240;2024-01-10T10:38:51;15.90;57.60
13798;DHT22;6970;51.340;3.240;2024-01-10T10:41:18;15.50;57.20
13798;DHT22;6970;51.340;3.240;2024-01-10T10:43:48;15.40;57.90
13798;DHT22;6970;51.340;3.240;2024-01-10T10:46:20;15.50;58.30
13798;DHT22;6970;51.340;3.240;2024-01-10T10:48:54;15.60;58.00
13798;DHT22;6970;51.340;3.240;2024-01-10T10:51:33;15.90;58.00
13798;DHT22;6970;51.340;3.240;2024-01-10T10:54:07;16.00;56.90
13798;DHT22;6970;51.340;3.240;2024-01-10T10:56:38;15.90;56.70
13798;DHT22;6970;51.340;3.240;2024-01-10T10:59:10;15.60;56.60
13798;DHT22;6970;51.340;3.240;2024-01-10T11:01:42;15.40;57.10
13798;DHT22;6970;51.340;3.240;2024-01-10T11:04:12;15.30;57.30
13798;DHT22;6970;51.340;3.240;2024-01-10T11:06:41;15.10;57.20
13798;DHT22;6970;51.340;3.240;2024-01-10T11:09:12;15.00;57.60
13798;DHT22;6970;51.340;3.240;2024-01-10T11:25:51;13.00;59.40
13798;DHT22;6970;51.340;3.240;2024-01-10T11:28:18;12.90;59.90
13798;DHT22;6970;51.340;3.240;2024-01-10T11:30:53;13.00;60.40
13798;DHT22;6970;51.340;3.240;2024-01-10T11:33:24;12.90;59.90
13798;DHT22;6970;51.340;3.240;2024-01-10T11:46:50;11.90;61.00
13798;DHT22;6970;51.340;3.240;2024-01-10T11:49:21;11.30;61.00
13798;DHT22;6970;51.340;3.240;2024-01-10T11:51:55;10.60;62.20
13798;DHT22;6970;51.340;3.240;2024-01-10T11:54:43;10.00;63.30
13798;DHT22;6970;51.340;3.240;2024-01-10T11:57:30;9.40;64.40
13798;DHT22;6970;51.340;3.240;2024-01-10T12:00:02;8.90;65.50
13798;DHT22;6970;51.340;3.240;2024-01-10T12:02:35;8.50;66.80
13798;DHT22;6970;51.340;3.240;2024-01-10T12:05:03;8.10;67.60
13798;DHT22;6970;51.340;3.240;2024-01-10T12:07:31;7.60;68.40
13798;DHT22;6970;51.340;3.240;2024-01-10T12:09:58;7.20;69.30
13798;DHT22;6970;51.340;3.240;2024-01-10T12:12:25;6.90;70.30
13798;DHT22;6970;51.340;3.240;2024-01-10T12:14:53;6.60;71.90
13798;DHT22;6970;51.340;3.240;2024-01-10T12:17:28;6.40;72.60
13798;DHT22;6970;51.340;3.240;2024-01-10T12:19:56;6.30;73.10
13798;DHT22;6970;51.340;3.240;2024-01-10T12:22:23;6.20;73.90
13798;DHT22;6970;51.340;3.240;2024-01-10T12:24:50;6.20;74.40
13798;DHT22;6970;51.340;3.240;2024-01-10T12:27:19;6.20;74.90
13798;DHT22;6970;51.340;3.240;2024-01-10T12:29:50;6.10;75.60
13798;DHT22;6970;51.340;3.240;2024-01-10T12:32:22;6.00;76.20
13798;DHT22;6970;51.340;3.240;2024-01-10T12:35:05;5.90;76.40
13798;DHT22;6970;51.340;3.240;2024-01-10T12:37:34;5.80;77.00
13798;DHT22;6970;51.340;3.240;2024-01-10T12:40:07;5.80;77.40
13798;DHT22;6970;51.340;3.240;2024-01-10T12:42:39;5.90;77.60
13798;DHT22;6970;51.340;3.240;2024-01-10T12:45:22;5.90;77.80
13798;DHT22;6970;51.340;3.240;2024-01-10T12:47:53;5.80;77.80
13798;DHT22;6970;51.340;3.240;2024-01-10T12:50:22;5.70;78.20
13798;DHT22;6970;51.340;3.240;2024-01-10T12:52:49;5.60;78.80
13798;DHT22;6970;51.340;3.240;2024-01-10T12:55:19;5.60;79.70
13798;DHT22;6970;51.340;3.240;2024-01-10T12:57:49;5.50;80.00
13798;DHT22;6970;51.340;3.240;2024-01-10T13:00:28;5.40;80.80
13798;DHT22;6970;51.340;3.240;2024-01-10T13:02:56;5.50;80.40
13798;DHT22;6970;51.340;3.240;2024-01-10T13:05:24;5.40;80.50
13798;DHT22;6970;51.340;3.240;2024-01-10T13:07:54;5.40;81.60
13798;DHT22;6970;51.340;3.240;2024-01-10T13:10:23;5.40;81.70
13798;DHT22;6970;51.340;3.240;2024-01-10T13:12:53;5.30;82.20
13798;DHT22;6970;51.340;3.240;2024-01-10T13:15:21;5.30;82.40
13798;DHT22;6970;51.340;3.240;2024-01-10T13:17:51;5.30;82.70
13798;DHT22;6970;51.340;3.240;2024-01-10T13:20:21;5.30;82.80
13798;DHT22;6970;51.340;3.240;2024-01-10T13:22:48;5.20;83.10
13798;DHT22;6970;51.340;3.240;2024-01-10T13:25:21;5.20;83.60
13798;DHT22;6970;51.340;3.240;2024-01-10T13:27:53;5.30;83.40
13798;DHT22;6970;51.340;3.240;2024-01-10T13:30:22;5.20;83.10
13798;DHT22;6970;51.340;3.240;2024-01-10T13:32:50;5.20;83.60
13798;DHT22;6970;51.340;3.240;2024-01-10T13:35:19;5.30;83.40
13798;DHT22;6970;51.340;3.240;2024-01-10T13:37:47;5.20;83.40
13798;DHT22;6970;51.340;3.240;2024-01-10T13:40:14;5.20;84.50
13798;DHT22;6970;51.340;3.240;2024-01-10T13:42:43;5.30;83.90
13798;DHT22;6970;51.340;3.240;2024-01-10T13:45:11;5.20;83.80
13798;DHT22;6970;51.340;3.240;2024-01-10T13:47:39;5.20;83.70
13798;DHT22;6970;51.340;3.240;2024-01-10T13:50:13;5.20;83.80
13798;DHT22;6970;51.340;3.240;2024-01-10T13:52:43;5.20;83.90
13798;DHT22;6970;51.340;3.240;2024-01-10T13:55:12;5.20;83.90
13798;DHT22;6970;51.340;3.240;2024-01-10T13:57:40;5.20;83.70
13798;DHT22;6970;51.340;3.240;2024-01-10T14:00:10;5.00;83.80
13798;DHT22;6970;51.340;3.240;2024-01-10T14:02:42;5.00;84.40
13798;DHT22;6970;51.340;3.240;2024-01-10T14:05:09;4.80;84.70
13798;DHT22;6970;51.340;3.240;2024-01-10T14:07:39;4.80;85.50
13798;DHT22;6970;51.340;3.240;2024-01-10T14:10:10;4.70;84.80
13798;DHT22;6970;51.340;3.240;2024-01-10T14:12:39;4.60;85.20
13798;DHT22;6970;51.340;3.240;2024-01-10T14:15:08;4.50;85.20
13798;DHT22;6970;51.340;3.240;2024-01-10T14:17:36;4.50;85.10
13798;DHT22;6970;51.340;3.240;2024-01-10T14:20:03;4.40;85.60
13798;DHT22;6970;51.340;3.240;2024-01-10T14:22:31;4.40;86.00
13798;DHT22;6970;51.340;3.240;2024-01-10T14:25:03;4.40;85.70
13798;DHT22;6970;51.340;3.240;2024-01-10T14:27:31;4.30;84.80
13798;DHT22;6970;51.340;3.240;2024-01-10T14:30:05;4.40;84.70
13798;DHT22;6970;51.340;3.240;2024-01-10T14:32:37;4.40;84.50
13798;DHT22;6970;51.340;3.240;2024-01-10T14:35:06;4.40;84.50
13798;DHT22;6970;51.340;3.240;2024-01-10T14:37:34;4.50;84.30
13798;DHT22;6970;51.340;3.240;2024-01-10T14:40:07;4.40;84.00
13798;DHT22;6970;51.340;3.240;2024-01-10T14:42:35;4.20;84.00
13798;DHT22;6970;51.340;3.240;2024-01-10T14:45:05;4.10;84.50
13798;DHT22;6970;51.340;3.240;2024-01-10T14:47:34;3.90;84.90
13798;DHT22;6970;51.340;3.240;2024-01-10T14:50:06;3.80;85.10
13798;DHT22;6970;51.340;3.240;2024-01-10T14:52:34;3.80;85.50
13798;DHT22;6970;51.340;3.240;2024-01-10T14:55:04;3.70;85.80
13798;DHT22;6970;51.340;3.240;2024-01-10T14:57:33;3.70;86.20
13798;DHT22;6970;51.340;3.240;2024-01-10T15:00:03;3.60;86.70
13798;DHT22;6970;51.340;3.240;2024-01-10T15:02:35;3.50;86.80
13798;DHT22;6970;51.340;3.240;2024-01-10T15:05:06;3.40;87.30
13798;DHT22;6970;51.340;3.240;2024-01-10T15:07:40;3.30;87.40
13798;DHT22;6970;51.340;3.240;2024-01-10T15:10:13;3.30;88.00
13798;DHT22;6970;51.340;3.240;2024-01-10T15:12:43;3.20;88.20
13798;DHT22;6970;51.340;3.240;2024-01-10T15:15:11;3.10;88.60
13798;DHT22;6970;51.340;3.240;2024-01-10T15:17:38;3.00;90.10
13798;DHT22;6970;51.340;3.240;2024-01-10T15:20:13;2.90;90.20
13798;DHT22;6970;51.340;3.240;2024-01-10T15:22:40;2.80;90.60
13798;DHT22;6970;51.340;3.240;2024-01-10T15:25:16;2.60;90.80
13798;DHT22;6970;51.340;3.240;2024-01-10T15:27:45;2.50;91.10
13798;DHT22;6970;51.340;3.240;2024-01-10T15:30:13;2.40;91.40
13798;DHT22;6970;51.340;3.240;2024-01-10T15:32:48;2.40;91.80
13798;DHT22;6970;51.340;3.240;2024-01-10T15:35:18;2.30;91.90
13798;DHT22;6970;51.340;3.240;2024-01-10T15:37:47;2.30;91.90
13798;DHT22;6970;51.340;3.240;2024-01-10T15:40:14;2.30;92.10
13798;DHT22;6970;51.340;3.240;2024-01-10T15:42:42;2.20;92.10
13798;DHT22;6970;51.340;3.240;2024-01-10T15:45:11;2.20;92.30
13798;DHT22;6970;51.340;3.240;2024-01-10T15:47:42;2.20;92.30
13798;DHT22;6970;51.340;3.240;2024-01-10T15:50:10;2.10;92.50
13798;DHT22;6970;51.340;3.240;2024-01-10T15:52:38;2.00;92.60
13798;DHT22;6970;51.340;3.240;2024-01-10T15:55:10;1.90;92.70
13798;DHT22;6970;51.340;3.240;2024-01-10T16:00:08;1.80;93.10
13798;DHT22;6970;51.340;3.240;2024-01-10T16:02:38;1.80;93.30
13798;DHT22;6970;51.340;3.240;2024-01-10T16:05:13;1.70;93.40
13798;DHT22;6970;51.340;3.240;2024-01-10T16:07:41;1.60;93.60
13798;DHT22;6970;51.340;3.240;2024-01-10T16:10:15;1.50;93.80
13798;DHT22;6970;51.340;3.240;2024-01-10T16:12:44;1.50;93.70
13798;DHT22;6970;51.340;3.240;2024-01-10T16:15:13;1.40;93.80
13798;DHT22;6970;51.340;3.240;2024-01-10T16:17:40;1.30;93.90
13798;DHT22;6970;51.340;3.240;2024-01-10T16:20:11;1.30;93.90
13798;DHT22;6970;51.340;3.240;2024-01-10T16:22:38;1.20;93.80
13798;DHT22;6970;51.340;3.240;2024-01-10T16:25:12;1.20;93.70
13798;DHT22;6970;51.340;3.240;2024-01-10T16:27:39;1.20;93.80
13798;DHT22;6970;51.340;3.240;2024-01-10T16:30:09;1.10;93.80
13798;DHT22;6970;51.340;3.240;2024-01-10T16:32:39;1.10;93.80
13798;DHT22;6970;51.340;3.240;2024-01-10T16:35:10;1.10;93.90